createdAt,value
2017-06-30T00:00:01.992Z,15.8
2017-06-30T00:05:01.947Z,15.8
2017-06-30T00:10:01.737Z,15.8
2017-06-30T00:15:01.733Z,15.8
2017-06-30T00:20:01.206Z,15.8
2017-06-30T00:25:01.952Z,15.8
2017-06-30T00:30:02.025Z,15.8
2017-06-30T00:35:02.152Z,15.8
2017-06-30T00:40:01.862Z,15.8
2017-06-30T00:45:01.872Z,15.8
2017-06-30T00:50:01.351Z,15.8
2017-06-30T00:55:01.242Z,15.8
2017-06-30T01:00:01.243Z,15.8
2017-06-30T01:05:01.349Z,15.7
2017-06-30T01:10:02.153Z,15.7
2017-06-30T01:15:01.763Z,15.7
2017-06-30T01:20:02.159Z,15.7
2017-06-30T01:25:01.855Z,15.7
2017-06-30T01:30:01.923Z,15.7
2017-06-30T01:35:01.363Z,15.7
2017-06-30T01:40:02.178Z,15.7
2017-06-30T01:45:02.176Z,15.7
2017-06-30T01:50:02.059Z,15.7
2017-06-30T01:55:01.852Z,15.7
2017-06-30T02:00:01.222Z,15.7
2017-06-30T02:05:01.373Z,15.7
2017-06-30T02:10:01.406Z,15.7
2017-06-30T02:15:01.542Z,15.7
2017-06-30T02:20:01.275Z,15.6
2017-06-30T02:25:02.169Z,15.6
2017-06-30T02:30:01.658Z,15.7
2017-06-30T02:35:02.091Z,15.7
2017-06-30T02:40:01.371Z,15.7
2017-06-30T02:45:01.601Z,15.6
2017-06-30T02:50:01.561Z,15.6
2017-06-30T02:55:01.470Z,15.6
2017-06-30T03:00:01.614Z,15.6
2017-06-30T03:05:01.796Z,15.6
2017-06-30T03:10:01.604Z,15.6
2017-06-30T03:15:01.784Z,15.6
2017-06-30T03:20:01.443Z,15.6
2017-06-30T03:25:05.386Z,15.7
2017-06-30T03:30:01.393Z,15.6
2017-06-30T03:35:01.673Z,15.6
2017-06-30T03:40:01.978Z,15.6
2017-06-30T03:45:01.625Z,15.6
2017-06-30T03:50:01.755Z,15.6
2017-06-30T03:55:02.084Z,15.6
2017-06-30T04:00:01.360Z,15.6
2017-06-30T04:05:02.166Z,15.6
2017-06-30T04:10:01.984Z,15.5
2017-06-30T04:15:02.180Z,15.5
2017-06-30T04:20:01.921Z,15.3
2017-06-30T04:25:01.733Z,15.3
2017-06-30T04:30:01.809Z,15.2
2017-06-30T04:35:02.069Z,15
2017-06-30T04:40:02.057Z,15
2017-06-30T04:45:01.525Z,15
2017-06-30T04:50:01.658Z,15
2017-06-30T04:55:01.865Z,15
2017-06-30T05:00:01.934Z,15
2017-06-30T05:05:01.861Z,15
2017-06-30T05:10:01.615Z,15
2017-06-30T05:15:01.953Z,15
2017-06-30T05:20:01.704Z,15
2017-06-30T05:25:02.114Z,15
2017-06-30T05:30:01.936Z,15
2017-06-30T05:35:01.528Z,15
2017-06-30T05:40:01.476Z,15
2017-06-30T05:45:01.211Z,15
2017-06-30T05:50:01.409Z,15
2017-06-30T05:55:01.931Z,15
2017-06-30T06:00:01.344Z,15
2017-06-30T06:05:01.598Z,15
2017-06-30T06:10:01.616Z,15
2017-06-30T06:15:01.984Z,15
2017-06-30T06:20:01.926Z,15
2017-06-30T06:25:01.770Z,15
2017-06-30T06:30:01.893Z,15
2017-06-30T06:35:01.920Z,15
2017-06-30T06:40:01.662Z,15
2017-06-30T06:45:02.140Z,15
2017-06-30T06:50:01.636Z,15
2017-06-30T06:55:01.243Z,15
2017-06-30T07:00:01.410Z,15
2017-06-30T07:05:01.513Z,15
2017-06-30T07:10:01.496Z,15
2017-06-30T07:15:01.609Z,15
2017-06-30T07:20:01.727Z,15
2017-06-30T07:25:01.573Z,15
2017-06-30T07:30:01.946Z,15
2017-06-30T07:35:01.287Z,15
2017-06-30T07:40:02.125Z,15
2017-06-30T07:45:01.789Z,15
2017-06-30T07:50:01.953Z,15
2017-06-30T07:55:01.409Z,15
2017-06-30T08:00:01.883Z,15
2017-06-30T08:05:01.419Z,15
2017-06-30T08:10:01.730Z,15
2017-06-30T08:15:01.262Z,15
2017-06-30T08:20:01.260Z,15
2017-06-30T08:25:02.030Z,15
2017-06-30T08:30:02.185Z,15
2017-06-30T08:35:01.466Z,15
2017-06-30T08:40:01.285Z,15
2017-06-30T08:45:01.739Z,15
2017-06-30T08:50:01.888Z,15
2017-06-30T08:55:01.580Z,15
2017-06-30T09:00:01.363Z,15
2017-06-30T09:05:01.777Z,15
2017-06-30T09:10:01.668Z,15
2017-06-30T09:15:01.333Z,14.9
2017-06-30T09:20:01.947Z,15
2017-06-30T09:25:01.981Z,15
2017-06-30T09:30:01.457Z,15
2017-06-30T09:35:01.458Z,14.9
2017-06-30T09:40:03.756Z,14.9
2017-06-30T09:45:01.871Z,15
2017-06-30T09:50:01.907Z,14.8
2017-06-30T09:55:01.664Z,14.8
2017-06-30T10:00:02.010Z,14.8
2017-06-30T10:05:01.469Z,14.8
2017-06-30T10:10:01.251Z,14.7
2017-06-30T10:15:01.191Z,14.7
2017-06-30T10:20:01.928Z,14.8
2017-06-30T10:25:02.738Z,14.8
2017-06-30T10:30:02.129Z,14.8
2017-06-30T10:35:01.162Z,14.9
2017-06-30T10:40:02.053Z,14.9
2017-06-30T10:45:01.814Z,14.9
2017-06-30T10:50:01.906Z,14.9
2017-06-30T10:55:01.460Z,15
2017-06-30T11:00:01.811Z,14.9
2017-06-30T11:05:02.072Z,15
2017-06-30T11:10:01.913Z,15
2017-06-30T11:15:01.521Z,15
2017-06-30T11:20:01.991Z,15
2017-06-30T11:25:01.970Z,15
2017-06-30T11:30:01.260Z,15
2017-06-30T11:35:01.215Z,15
2017-06-30T11:40:01.584Z,15
2017-06-30T11:45:01.537Z,15
2017-06-30T11:50:01.590Z,15
2017-06-30T11:55:02.125Z,15
2017-06-30T12:00:01.440Z,15
2017-06-30T12:05:01.653Z,15
2017-06-30T12:10:01.456Z,15
2017-06-30T12:15:02.158Z,15
2017-06-30T12:20:01.199Z,15
2017-06-30T12:25:01.235Z,15
2017-06-30T12:30:01.577Z,15
2017-06-30T12:35:01.455Z,15
2017-06-30T12:40:01.259Z,15
2017-06-30T12:45:01.956Z,15
2017-06-30T12:50:01.452Z,15
2017-06-30T12:55:02.044Z,15
2017-06-30T13:00:01.494Z,15
2017-06-30T13:05:01.696Z,15
2017-06-30T13:10:02.032Z,15
2017-06-30T13:15:01.417Z,15
2017-06-30T13:20:01.428Z,15
2017-06-30T13:25:02.550Z,15
2017-06-30T13:30:01.359Z,15
2017-06-30T13:35:02.030Z,15
2017-06-30T13:40:01.829Z,15
2017-06-30T13:45:01.787Z,15
2017-06-30T13:50:02.111Z,15
2017-06-30T13:55:01.966Z,15
2017-06-30T14:00:02.081Z,15
2017-06-30T14:05:01.574Z,15
2017-06-30T14:10:01.475Z,15
2017-06-30T14:15:01.798Z,15
2017-06-30T14:20:01.742Z,15
2017-06-30T14:25:01.499Z,15
2017-06-30T14:30:01.802Z,15
2017-06-30T14:35:01.558Z,15
2017-06-30T14:40:01.458Z,15
2017-06-30T14:45:01.970Z,15
2017-06-30T14:50:02.069Z,15
2017-06-30T14:55:01.366Z,15
2017-06-30T15:00:01.562Z,14.9
2017-06-30T15:05:01.764Z,14.9
2017-06-30T15:10:02.183Z,14.8
2017-06-30T15:15:01.410Z,14.8
2017-06-30T15:20:02.064Z,14.8
2017-06-30T15:25:01.737Z,14.8
2017-06-30T15:30:03.643Z,14.8
2017-06-30T15:35:01.441Z,14.8
2017-06-30T15:40:01.256Z,14.7
2017-06-30T15:45:01.809Z,14.7
2017-06-30T15:50:02.163Z,14.6
2017-06-30T15:55:01.525Z,14.6
2017-06-30T16:00:02.145Z,14.6
2017-06-30T16:05:01.377Z,14.6
2017-06-30T16:10:01.432Z,14.6
2017-06-30T16:15:01.972Z,14.7
2017-06-30T16:20:02.243Z,14.7
2017-06-30T16:25:01.440Z,14.7
2017-06-30T16:30:01.659Z,14.6
2017-06-30T16:35:01.251Z,14.6
2017-06-30T16:40:02.150Z,14.6
2017-06-30T16:45:01.821Z,14.5
2017-06-30T16:50:01.756Z,14.6
2017-06-30T16:55:02.027Z,14.6
2017-06-30T17:00:01.295Z,14.5
2017-06-30T17:05:02.115Z,14.5
2017-06-30T17:10:01.541Z,14.4
2017-06-30T17:15:01.971Z,14.4
2017-06-30T17:20:01.940Z,14.4
2017-06-30T17:25:01.859Z,14.4
2017-06-30T17:30:02.070Z,14.4
2017-06-30T17:35:01.502Z,14.4
2017-06-30T17:40:01.368Z,14.4
2017-06-30T17:45:01.879Z,14.4
2017-06-30T17:50:01.340Z,14.3
2017-06-30T17:55:01.861Z,14.4
2017-06-30T18:00:01.632Z,14.3
2017-06-30T18:05:01.487Z,14.3
2017-06-30T18:10:01.781Z,14.3
2017-06-30T18:15:01.472Z,14.3
2017-06-30T18:20:01.627Z,14.2
2017-06-30T18:25:01.564Z,14.2
2017-06-30T18:30:01.583Z,14.2
2017-06-30T18:35:01.263Z,14.2
2017-06-30T18:40:02.089Z,14.1
2017-06-30T18:45:01.450Z,14.1
2017-06-30T18:50:01.636Z,14
2017-06-30T18:55:02.162Z,14
2017-06-30T19:00:01.618Z,14
2017-06-30T19:05:01.248Z,14
2017-06-30T19:10:01.560Z,14
2017-06-30T19:15:01.226Z,14
2017-06-30T19:20:02.146Z,14
2017-06-30T19:25:01.358Z,14
2017-06-30T19:30:01.434Z,14
2017-06-30T19:35:01.458Z,14
2017-06-30T19:40:01.788Z,14
2017-06-30T19:45:01.275Z,14
2017-06-30T19:50:01.846Z,14
2017-06-30T19:55:01.650Z,14
2017-06-30T20:00:01.946Z,14
2017-06-30T20:05:01.628Z,14
2017-06-30T20:10:02.024Z,14
2017-06-30T20:15:01.250Z,14
2017-06-30T20:20:01.564Z,14
2017-06-30T20:25:01.635Z,14
2017-06-30T20:30:02.258Z,14.1
2017-06-30T20:35:01.904Z,14.1
2017-06-30T20:40:01.754Z,14.1
2017-06-30T20:45:02.017Z,14.1
2017-06-30T20:50:02.169Z,14.2
2017-06-30T20:55:02.139Z,14.1
2017-06-30T21:00:01.238Z,14.1
2017-06-30T21:05:02.046Z,14.2
2017-06-30T21:10:02.069Z,14.2
2017-06-30T21:15:01.383Z,14.2
2017-06-30T21:20:01.740Z,14.2
2017-06-30T21:25:01.556Z,14.2
2017-06-30T21:30:02.219Z,14.2
2017-06-30T21:35:01.342Z,14.2
2017-06-30T21:40:01.310Z,14.2
2017-06-30T21:45:01.589Z,14.2
2017-06-30T21:50:02.097Z,14.2
2017-06-30T21:55:02.076Z,14.1
2017-06-30T22:00:01.235Z,14.1
2017-06-30T22:05:02.165Z,14.1
2017-06-30T22:10:02.422Z,14.1
2017-06-30T22:15:01.559Z,14.1
2017-06-30T22:20:01.390Z,14
2017-06-30T22:25:01.738Z,14
2017-06-30T22:30:01.740Z,14
2017-06-30T22:35:01.753Z,14
2017-06-30T22:40:01.687Z,14
2017-06-30T22:45:01.932Z,14
2017-06-30T22:50:01.930Z,14
2017-06-30T22:55:02.206Z,14
2017-06-30T23:00:01.703Z,14
2017-06-30T23:05:01.828Z,14
2017-06-30T23:10:02.170Z,14
2017-06-30T23:15:02.003Z,14
2017-06-30T23:20:01.811Z,14
2017-06-30T23:25:01.893Z,14
2017-06-30T23:30:01.691Z,14
2017-06-30T23:35:01.345Z,14
2017-06-30T23:40:02.161Z,14
2017-06-30T23:45:01.146Z,14
2017-06-30T23:50:01.612Z,14
2017-06-30T23:55:01.305Z,14
